sensor_id;sensor_type;location;lat;lon;timestamp;temperature;humidity
5554;DHT22;2800;49.528;8.666;2023-09-30T00:00:58;16.70;99.90
5554;DHT22;2800;49.528;8.666;2023-09-30T00:03:24;16.60;99.90
5554;DHT22;2800;49.528;8.666;2023-09-30T00:05:50;16.60;99.90
5554;DHT22;2800;49.528;8.666;2023-09-30T00:08:16;16.50;99.90
5554;DHT22;2800;49.528;8.666;2023-09-30T00:10:42;16.50;99.90
5554;DHT22;2800;49.528;8.666;2023-09-30T00:13:08;16.50;99.90
5554;DHT22;2800;49.528;8.666;2023-09-30T00:15:33;16.40;99.90
5554;DHT22;2800;49.528;8.666;2023-09-30T00:17:59;16.40;99.90
5554;DHT22;2800;49.528;8.666;2023-09-30T00:20:25;16.30;99.90
5554;DHT22;2800;49.528;8.666;2023-09-30T00:22:50;16.30;99.90
5554;DHT22;2800;49.528;8.666;2023-09-30T00:25:16;16.20;99.90
5554;DHT22;2800;49.528;8.666;2023-09-30T00:27:41;16.20;99.90
5554;DHT22;2800;49.528;8.666;2023-09-30T00:30:07;16.20;99.90
5554;DHT22;2800;49.528;8.666;2023-09-30T00:32:33;16.20;99.90
5554;DHT22;2800;49.528;8.666;2023-09-30T00:35:01;16.10;99.90
5554;DHT22;2800;49.528;8.666;2023-09-30T00:37:26;16.00;99.90
5554;DHT22;2800;49.528;8.666;2023-09-30T00:39:53;16.10;99.90
5554;DHT22;2800;49.528;8.666;2023-09-30T00:42:18;16.20;99.90
5554;DHT22;2800;49.528;8.666;2023-09-30T00:44:46;16.10;99.90
5554;DHT22;2800;49.528;8.666;2023-09-30T00:47:12;16.20;99.90
5554;DHT22;2800;49.528;8.666;2023-09-30T00:49:38;16.10;99.90
5554;DHT22;2800;49.528;8.666;2023-09-30T00:52:03;16.20;99.90
5554;DHT22;2800;49.528;8.666;2023-09-30T00:54:30;16.20;99.90
5554;DHT22;2800;49.528;8.666;2023-09-30T00:56:56;16.20;99.90
5554;DHT22;2800;49.528;8.666;2023-09-30T00:59:23;16.20;99.90
5554;DHT22;2800;49.528;8.666;2023-09-30T01:01:51;16.30;99.90
5554;DHT22;2800;49.528;8.666;2023-09-30T01:04:18;16.30;99.90
5554;DHT22;2800;49.528;8.666;2023-09-30T01:06:45;16.30;99.90
5554;DHT22;2800;49.528;8.666;2023-09-30T01:09:12;16.30;99.90
5554;DHT22;2800;49.528;8.666;2023-09-30T01:11:39;16.30;99.90
5554;DHT22;2800;49.528;8.666;2023-09-30T01:14:23;17.20;99.90
5554;DHT22;2800;49.528;8.666;2023-09-30T01:16:48;16.40;99.90
5554;DHT22;2800;49.528;8.666;2023-09-30T01:19:14;16.30;99.90
5554;DHT22;2800;49.528;8.666;2023-09-30T01:21:39;16.30;99.90
5554;DHT22;2800;49.528;8.666;2023-09-30T01:24:07;16.30;99.90
5554;DHT22;2800;49.528;8.666;2023-09-30T01:26:32;16.30;99.90
5554;DHT22;2800;49.528;8.666;2023-09-30T01:28:58;16.20;99.90
5554;DHT22;2800;49.528;8.666;2023-09-30T01:31:24;16.20;99.90
5554;DHT22;2800;49.528;8.666;2023-09-30T01:33:49;16.30;99.90
5554;DHT22;2800;49.528;8.666;2023-09-30T01:36:19;16.30;99.90
5554;DHT22;2800;49.528;8.666;2023-09-30T01:38:45;16.30;99.90
5554;DHT22;2800;49.528;8.666;2023-09-30T01:41:11;16.30;99.90
5554;DHT22;2800;49.528;8.666;2023-09-30T01:43:37;16.30;99.90
5554;DHT22;2800;49.528;8.666;2023-09-30T01:46:03;16.30;99.90
5554;DHT22;2800;49.528;8.666;2023-09-30T01:48:30;16.30;99.90
5554;DHT22;2800;49.528;8.666;2023-09-30T01:50:56;16.40;99.90
5554;DHT22;2800;49.528;8.666;2023-09-30T01:53:21;16.40;99.90
5554;DHT22;2800;49.528;8.666;2023-09-30T01:55:47;16.50;99.90
5554;DHT22;2800;49.528;8.666;2023-09-30T01:58:13;16.30;99.90
5554;DHT22;2800;49.528;8.666;2023-09-30T02:00:38;16.50;99.90
5554;DHT22;2800;49.528;8.666;2023-09-30T02:03:04;16.50;99.90
5554;DHT22;2800;49.528;8.666;2023-09-30T02:05:29;16.50;99.90
5554;DHT22;2800;49.528;8.666;2023-09-30T02:07:55;16.60;99.90
5554;DHT22;2800;49.528;8.666;2023-09-30T02:10:20;16.60;99.90
5554;DHT22;2800;49.528;8.666;2023-09-30T02:12:46;16.60;99.90
5554;DHT22;2800;49.528;8.666;2023-09-30T02:15:13;16.60;99.90
5554;DHT22;2800;49.528;8.666;2023-09-30T02:17:39;16.60;99.90
5554;DHT22;2800;49.528;8.666;2023-09-30T02:20:05;16.60;99.90
5554;DHT22;2800;49.528;8.666;2023-09-30T02:22:38;16.60;99.90
5554;DHT22;2800;49.528;8.666;2023-09-30T02:25:04;16.50;99.90
5554;DHT22;2800;49.528;8.666;2023-09-30T02:27:32;16.50;99.90
5554;DHT22;2800;49.528;8.666;2023-09-30T02:29:58;16.40;99.90
5554;DHT22;2800;49.528;8.666;2023-09-30T02:32:23;16.30;99.90
5554;DHT22;2800;49.528;8.666;2023-09-30T02:34:49;16.30;99.90
5554;DHT22;2800;49.528;8.666;2023-09-30T02:37:15;16.30;99.90
5554;DHT22;2800;49.528;8.666;2023-09-30T02:39:42;16.20;99.90
5554;DHT22;2800;49.528;8.666;2023-09-30T02:42:08;16.30;99.90
5554;DHT22;2800;49.528;8.666;2023-09-30T02:44:34;16.30;99.90
5554;DHT22;2800;49.528;8.666;2023-09-30T02:47:00;16.30;99.90
5554;DHT22;2800;49.528;8.666;2023-09-30T02:49:25;16.20;99.90
5554;DHT22;2800;49.528;8.666;2023-09-30T02:51:51;16.20;99.90
5554;DHT22;2800;49.528;8.666;2023-09-30T02:54:16;16.20;99.90
5554;DHT22;2800;49.528;8.666;2023-09-30T02:56:42;16.10;99.90
5554;DHT22;2800;49.528;8.666;2023-09-30T02:59:08;16.10;99.90
5554;DHT22;2800;49.528;8.666;2023-09-30T03:01:34;16.00;99.90
5554;DHT22;2800;49.528;8.666;2023-09-30T03:03:59;16.00;99.90
5554;DHT22;2800;49.528;8.666;2023-09-30T03:06:25;15.90;99.90
5554;DHT22;2800;49.528;8.666;2023-09-30T03:08:51;15.80;99.90
5554;DHT22;2800;49.528;8.666;2023-09-30T03:11:17;15.80;99.90
5554;DHT22;2800;49.528;8.666;2023-09-30T03:13:44;15.70;99.90
5554;DHT22;2800;49.528;8.666;2023-09-30T03:16:09;15.60;99.90
5554;DHT22;2800;49.528;8.666;2023-09-30T03:18:35;15.60;99.90
5554;DHT22;2800;49.528;8.666;2023-09-30T03:21:01;15.50;99.90
5554;DHT22;2800;49.528;8.666;2023-09-30T03:23:27;15.50;99.90
5554;DHT22;2800;49.528;8.666;2023-09-30T03:25:58;15.40;99.90
5554;DHT22;2800;49.528;8.666;2023-09-30T03:28:24;15.40;99.90
5554;DHT22;2800;49.528;8.666;2023-09-30T03:30:50;15.30;99.90
5554;DHT22;2800;49.528;8.666;2023-09-30T03:33:16;15.20;99.90
5554;DHT22;2800;49.528;8.666;2023-09-30T03:35:42;15.10;99.90
5554;DHT22;2800;49.528;8.666;2023-09-30T03:38:08;14.90;99.90
5554;DHT22;2800;49.528;8.666;2023-09-30T03:40:35;15.10;99.90
5554;DHT22;2800;49.528;8.666;2023-09-30T03:43:03;15.00;99.90
5554;DHT22;2800;49.528;8.666;2023-09-30T03:45:31;14.90;99.90
5554;DHT22;2800;49.528;8.666;2023-09-30T03:47:58;14.80;99.90
5554;DHT22;2800;49.528;8.666;2023-09-30T03:50:24;14.80;99.90
5554;DHT22;2800;49.528;8.666;2023-09-30T03:52:49;14.70;99.90
5554;DHT22;2800;49.528;8.666;2023-09-30T03:55:16;14.70;99.90
5554;DHT22;2800;49.528;8.666;2023-09-30T03:57:43;14.70;99.90
5554;DHT22;2800;49.528;8.666;2023-09-30T04:00:13;14.60;99.90
5554;DHT22;2800;49.528;8.666;2023-09-30T04:02:42;14.60;99.90
5554;DHT22;2800;49.528;8.666;2023-09-30T04:05:08;14.60;99.90
5554;DHT22;2800;49.528;8.666;2023-09-30T04:07:37;14.60;99.90
5554;DHT22;2800;49.528;8.666;2023-09-30T04:10:03;14.50;99.90
5554;DHT22;2800;49.528;8.666;2023-09-30T04:12:29;14.50;99.90
5554;DHT22;2800;49.528;8.666;2023-09-30T04:14:55;14.50;99.90
5554;DHT22;2800;49.528;8.666;2023-09-30T04:17:20;14.50;99.90
5554;DHT22;2800;49.528;8.666;2023-09-30T04:19:48;14.60;99.90
5554;DHT22;2800;49.528;8.666;2023-09-30T04:22:16;14.60;99.90
5554;DHT22;2800;49.528;8.666;2023-09-30T04:24:42;14.50;99.90
5554;DHT22;2800;49.528;8.666;2023-09-30T04:27:07;14.60;99.90
5554;DHT22;2800;49.528;8.666;2023-09-30T04:29:33;14.60;99.90
5554;DHT22;2800;49.528;8.666;2023-09-30T04:32:00;14.70;99.90
5554;DHT22;2800;49.528;8.666;2023-09-30T04:34:25;14.70;99.90
5554;DHT22;2800;49.528;8.666;2023-09-30T04:36:53;14.80;99.90
5554;DHT22;2800;49.528;8.666;2023-09-30T04:39:18;14.80;99.90
5554;DHT22;2800;49.528;8.666;2023-09-30T04:41:44;14.80;99.90
5554;DHT22;2800;49.528;8.666;2023-09-30T04:44:09;14.90;99.90
5554;DHT22;2800;49.528;8.666;2023-09-30T04:46:35;14.90;99.90
5554;DHT22;2800;49.528;8.666;2023-09-30T04:49:01;15.00;99.90
5554;DHT22;2800;49.528;8.666;2023-09-30T04:51:27;15.00;99.90
5554;DHT22;2800;49.528;8.666;2023-09-30T04:53:53;15.10;99.90
5554;DHT22;2800;49.528;8.666;2023-09-30T04:56:20;15.10;99.90
5554;DHT22;2800;49.528;8.666;2023-09-30T04:58:45;15.10;99.90
5554;DHT22;2800;49.528;8.666;2023-09-30T05:01:12;15.10;99.90
5554;DHT22;2800;49.528;8.666;2023-09-30T05:03:38;15.10;99.90
5554;DHT22;2800;49.528;8.666;2023-09-30T05:06:03;15.00;99.90
5554;DHT22;2800;49.528;8.666;2023-09-30T05:08:29;14.90;99.90
5554;DHT22;2800;49.528;8.666;2023-09-30T05:10:54;14.90;99.90
5554;DHT22;2800;49.528;8.666;2023-09-30T05:13:21;14.80;99.90
5554;DHT22;2800;49.528;8.666;2023-09-30T05:15:49;14.80;99.90
5554;DHT22;2800;49.528;8.666;2023-09-30T05:18:14;14.70;99.90
5554;DHT22;2800;49.528;8.666;2023-09-30T05:20:40;14.60;99.90
5554;DHT22;2800;49.528;8.666;2023-09-30T05:23:06;14.50;99.90
5554;DHT22;2800;49.528;8.666;2023-09-30T05:25:38;14.40;99.90
5554;DHT22;2800;49.528;8.666;2023-09-30T05:28:05;14.30;99.90
5554;DHT22;2800;49.528;8.666;2023-09-30T05:30:32;14.30;99.90
5554;DHT22;2800;49.528;8.666;2023-09-30T05:32:59;14.30;99.90
5554;DHT22;2800;49.528;8.666;2023-09-30T05:35:24;14.30;99.90
5554;DHT22;2800;49.528;8.666;2023-09-30T05:37:50;14.30;99.90
5554;DHT22;2800;49.528;8.666;2023-09-30T05:40:18;14.30;99.90
5554;DHT22;2800;49.528;8.666;2023-09-30T05:42:58;14.30;99.90
5554;DHT22;2800;49.528;8.666;2023-09-30T05:45:25;14.20;99.90
5554;DHT22;2800;49.528;8.666;2023-09-30T05:47:56;14.20;99.90
5554;DHT22;2800;49.528;8.666;2023-09-30T05:50:24;14.20;99.90
5554;DHT22;2800;49.528;8.666;2023-09-30T05:52:55;14.20;99.90
5554;DHT22;2800;49.528;8.666;2023-09-30T05:55:21;14.20;99.90
5554;DHT22;2800;49.528;8.666;2023-09-30T05:57:48;14.30;99.90
5554;DHT22;2800;49.528;8.666;2023-09-30T06:00:15;14.30;99.90
5554;DHT22;2800;49.528;8.666;2023-09-30T06:02:56;14.40;99.90
5554;DHT22;2800;49.528;8.666;2023-09-30T06:05:21;14.40;99.90
5554;DHT22;2800;49.528;8.666;2023-09-30T06:07:58;14.30;99.90
5554;DHT22;2800;49.528;8.666;2023-09-30T06:10:24;14.30;99.90
5554;DHT22;2800;49.528;8.666;2023-09-30T06:12:51;14.30;99.90
5554;DHT22;2800;49.528;8.666;2023-09-30T06:15:20;14.30;99.90
5554;DHT22;2800;49.528;8.666;2023-09-30T06:17:50;14.30;99.90
5554;DHT22;2800;49.528;8.666;2023-09-30T06:20:20;14.40;99.90
5554;DHT22;2800;49.528;8.666;2023-09-30T06:22:48;14.40;99.90
5554;DHT22;2800;49.528;8.666;2023-09-30T06:25:19;14.50;99.90
5554;DHT22;2800;49.528;8.666;2023-09-30T06:27:46;14.60;99.90
5554;DHT22;2800;49.528;8.666;2023-09-30T06:30:13;14.70;99.90
5554;DHT22;2800;49.528;8.666;2023-09-30T06:32:39;14.80;99.90
5554;DHT22;2800;49.528;8.666;2023-09-30T06:35:06;14.90;99.90
5554;DHT22;2800;49.528;8.666;2023-09-30T06:37:32;15.00;99.90
5554;DHT22;2800;49.528;8.666;2023-09-30T06:39:58;15.10;99.90
5554;DHT22;2800;49.528;8.666;2023-09-30T06:42:26;15.10;99.90
5554;DHT22;2800;49.528;8.666;2023-09-30T06:44:53;15.20;99.90
5554;DHT22;2800;49.528;8.666;2023-09-30T06:47:18;15.30;99.90
5554;DHT22;2800;49.528;8.666;2023-09-30T06:49:44;15.30;99.90
5554;DHT22;2800;49.528;8.666;2023-09-30T06:52:10;15.40;99.90
5554;DHT22;2800;49.528;8.666;2023-09-30T06:54:36;15.70;99.90
5554;DHT22;2800;49.528;8.666;2023-09-30T06:57:01;16.10;99.90
5554;DHT22;2800;49.528;8.666;2023-09-30T06:59:27;16.20;99.90
5554;DHT22;2800;49.528;8.666;2023-09-30T07:01:52;16.60;99.90
5554;DHT22;2800;49.528;8.666;2023-09-30T07:04:18;16.70;99.90
5554;DHT22;2800;49.528;8.666;2023-09-30T07:06:43;16.80;99.90
5554;DHT22;2800;49.528;8.666;2023-09-30T07:09:09;16.80;99.90
5554;DHT22;2800;49.528;8.666;2023-09-30T07:11:36;16.90;99.90
5554;DHT22;2800;49.528;8.666;2023-09-30T07:14:02;16.90;99.90
5554;DHT22;2800;49.528;8.666;2023-09-30T07:16:27;16.90;99.90
5554;DHT22;2800;49.528;8.666;2023-09-30T07:18:53;17.10;99.90
5554;DHT22;2800;49.528;8.666;2023-09-30T07:21:18;17.10;99.90
5554;DHT22;2800;49.528;8.666;2023-09-30T07:23:44;17.10;99.90
5554;DHT22;2800;49.528;8.666;2023-09-30T07:26:09;17.20;99.90
5554;DHT22;2800;49.528;8.666;2023-09-30T07:28:35;17.20;99.90
5554;DHT22;2800;49.528;8.666;2023-09-30T07:31:00;17.60;99.90
5554;DHT22;2800;49.528;8.666;2023-09-30T07:33:26;17.90;99.90
5554;DHT22;2800;49.528;8.666;2023-09-30T07:35:51;18.20;99.90
5554;DHT22;2800;49.528;8.666;2023-09-30T07:38:17;18.30;99.90
5554;DHT22;2800;49.528;8.666;2023-09-30T07:40:43;18.40;99.90
5554;DHT22;2800;49.528;8.666;2023-09-30T07:43:09;18.50;99.90
5554;DHT22;2800;49.528;8.666;2023-09-30T07:45:34;18.70;99.90
5554;DHT22;2800;49.528;8.666;2023-09-30T07:48:00;18.70;99.90
5554;DHT22;2800;49.528;8.666;2023-09-30T07:50:28;18.80;99.90
5554;DHT22;2800;49.528;8.666;2023-09-30T07:52:53;19.00;99.90
5554;DHT22;2800;49.528;8.666;2023-09-30T07:55:19;19.10;99.90
5554;DHT22;2800;49.528;8.666;2023-09-30T07:57:44;19.50;99.90
5554;DHT22;2800;49.528;8.666;2023-09-30T08:00:11;19.60;99.90
5554;DHT22;2800;49.528;8.666;2023-09-30T08:02:41;19.80;99.90
5554;DHT22;2800;49.528;8.666;2023-09-30T08:05:07;19.90;99.90
5554;DHT22;2800;49.528;8.666;2023-09-30T08:07:33;20.00;99.90
5554;DHT22;2800;49.528;8.666;2023-09-30T08:09:59;20.20;99.90
5554;DHT22;2800;49.528;8.666;2023-09-30T08:12:25;20.30;99.90
5554;DHT22;2800;49.528;8.666;2023-09-30T08:14:50;20.50;99.90
5554;DHT22;2800;49.528;8.666;2023-09-30T08:17:17;20.70;99.90
5554;DHT22;2800;49.528;8.666;2023-09-30T08:19:46;20.80;99.90
5554;DHT22;2800;49.528;8.666;2023-09-30T08:22:13;20.80;99.90
5554;DHT22;2800;49.528;8.666;2023-09-30T08:24:39;21.00;99.90
5554;DHT22;2800;49.528;8.666;2023-09-30T08:27:04;21.10;99.90
5554;DHT22;2800;49.528;8.666;2023-09-30T08:29:35;21.10;99.90
5554;DHT22;2800;49.528;8.666;2023-09-30T08:32:02;21.10;99.90
5554;DHT22;2800;49.528;8.666;2023-09-30T08:34:28;21.00;99.90
5554;DHT22;2800;49.528;8.666;2023-09-30T08:36:54;21.20;99.90
5554;DHT22;2800;49.528;8.666;2023-09-30T08:39:19;21.30;99.90
5554;DHT22;2800;49.528;8.666;2023-09-30T08:41:45;21.40;99.90
5554;DHT22;2800;49.528;8.666;2023-09-30T08:44:11;21.80;99.90
5554;DHT22;2800;49.528;8.666;2023-09-30T08:46:38;22.00;99.90
5554;DHT22;2800;49.528;8.666;2023-09-30T08:49:05;22.00;99.90
5554;DHT22;2800;49.528;8.666;2023-09-30T08:51:34;22.10;99.90
5554;DHT22;2800;49.528;8.666;2023-09-30T08:54:00;22.60;99.90
5554;DHT22;2800;49.528;8.666;2023-09-30T08:56:30;22.40;99.90
5554;DHT22;2800;49.528;8.666;2023-09-30T08:58:59;22.60;99.90
5554;DHT22;2800;49.528;8.666;2023-09-30T09:01:26;22.60;99.90
5554;DHT22;2800;49.528;8.666;2023-09-30T09:03:53;22.80;99.90
5554;DHT22;2800;49.528;8.666;2023-09-30T09:06:20;22.80;99.90
5554;DHT22;2800;49.528;8.666;2023-09-30T09:08:46;22.80;99.90
5554;DHT22;2800;49.528;8.666;2023-09-30T09:11:12;22.70;99.90
5554;DHT22;2800;49.528;8.666;2023-09-30T09:13:52;22.80;99.90
5554;DHT22;2800;49.528;8.666;2023-09-30T09:16:22;22.80;99.90
5554;DHT22;2800;49.528;8.666;2023-09-30T09:18:49;23.10;99.90
5554;DHT22;2800;49.528;8.666;2023-09-30T09:21:17;23.10;99.90
5554;DHT22;2800;49.528;8.666;2023-09-30T09:23:44;23.10;99.90
5554;DHT22;2800;49.528;8.666;2023-09-30T09:26:32;23.00;99.90
5554;DHT22;2800;49.528;8.666;2023-09-30T09:28:58;23.30;99.90
5554;DHT22;2800;49.528;8.666;2023-09-30T09:31:42;23.40;99.90
5554;DHT22;2800;49.528;8.666;2023-09-30T09:34:14;23.60;99.90
5554;DHT22;2800;49.528;8.666;2023-09-30T09:36:44;23.80;99.90
5554;DHT22;2800;49.528;8.666;2023-09-30T09:39:10;24.00;99.90
5554;DHT22;2800;49.528;8.666;2023-09-30T09:41:54;24.30;99.90
5554;DHT22;2800;49.528;8.666;2023-09-30T09:44:22;24.00;99.90
5554;DHT22;2800;49.528;8.666;2023-09-30T09:46:49;23.70;99.90
5554;DHT22;2800;49.528;8.666;2023-09-30T09:49:16;24.30;99.90
5554;DHT22;2800;49.528;8.666;2023-09-30T09:51:45;24.40;99.90
5554;DHT22;2800;49.528;8.666;2023-09-30T09:54:11;24.50;99.90
5554;DHT22;2800;49.528;8.666;2023-09-30T09:56:39;24.40;99.90
5554;DHT22;2800;49.528;8.666;2023-09-30T09:59:05;24.10;99.90
5554;DHT22;2800;49.528;8.666;2023-09-30T10:01:33;24.10;99.90
5554;DHT22;2800;49.528;8.666;2023-09-30T10:04:00;24.50;99.90
5554;DHT22;2800;49.528;8.666;2023-09-30T10:06:27;24.70;99.90
5554;DHT22;2800;49.528;8.666;2023-09-30T10:08:53;25.20;99.90
5554;DHT22;2800;49.528;8.666;2023-09-30T10:11:21;25.10;99.90
5554;DHT22;2800;49.528;8.666;2023-09-30T10:13:52;25.10;99.90
5554;DHT22;2800;49.528;8.666;2023-09-30T10:16:50;25.20;99.90
5554;DHT22;2800;49.528;8.666;2023-09-30T10:19:20;25.60;99.90
5554;DHT22;2800;49.528;8.666;2023-09-30T10:22:26;25.60;99.90
5554;DHT22;2800;49.528;8.666;2023-09-30T10:24:56;26.10;99.90
5554;DHT22;2800;49.528;8.666;2023-09-30T10:29:57;25.90;99.90
5554;DHT22;2800;49.528;8.666;2023-09-30T10:32:25;26.10;99.90
5554;DHT22;2800;49.528;8.666;2023-09-30T10:35:08;26.50;99.90
5554;DHT22;2800;49.528;8.666;2023-09-30T10:37:34;26.60;99.90
5554;DHT22;2800;49.528;8.666;2023-09-30T10:40:00;26.70;99.90
5554;DHT22;2800;49.528;8.666;2023-09-30T10:51:00;25.20;99.90
5554;DHT22;2800;49.528;8.666;2023-09-30T10:53:27;25.60;99.90
5554;DHT22;2800;49.528;8.666;2023-09-30T10:55:57;25.60;99.90
5554;DHT22;2800;49.528;8.666;2023-09-30T10:58:58;25.80;99.90
5554;DHT22;2800;49.528;8.666;2023-09-30T11:01:32;26.10;99.90
5554;DHT22;2800;49.528;8.666;2023-09-30T11:04:02;26.50;99.90
5554;DHT22;2800;49.528;8.666;2023-09-30T11:06:30;26.60;99.90
5554;DHT22;2800;49.528;8.666;2023-09-30T11:08:57;26.50;99.90
5554;DHT22;2800;49.528;8.666;2023-09-30T11:14:23;25.00;99.90
5554;DHT22;2800;49.528;8.666;2023-09-30T11:16:50;24.90;99.90
5554;DHT22;2800;49.528;8.666;2023-09-30T11:19:16;25.90;99.90
5554;DHT22;2800;49.528;8.666;2023-09-30T11:21:42;25.90;99.90
5554;DHT22;2800;49.528;8.666;2023-09-30T11:24:11;25.10;99.90
5554;DHT22;2800;49.528;8.666;2023-09-30T11:26:37;24.40;99.90
5554;DHT22;2800;49.528;8.666;2023-09-30T11:29:11;24.10;99.90
5554;DHT22;2800;49.528;8.666;2023-09-30T11:31:38;24.80;99.90
5554;DHT22;2800;49.528;8.666;2023-09-30T11:34:04;25.10;99.90
5554;DHT22;2800;49.528;8.666;2023-09-30T11:36:30;25.70;99.90
5554;DHT22;2800;49.528;8.666;2023-09-30T11:38:58;25.40;99.90
5554;DHT22;2800;49.528;8.666;2023-09-30T11:41:33;25.70;99.90
5554;DHT22;2800;49.528;8.666;2023-09-30T11:44:10;26.00;99.90
5554;DHT22;2800;49.528;8.666;2023-09-30T11:49:31;26.70;99.90
5554;DHT22;2800;49.528;8.666;2023-09-30T11:51:59;27.60;99.90
5554;DHT22;2800;49.528;8.666;2023-09-30T11:57:07;28.20;99.90
5554;DHT22;2800;49.528;8.666;2023-09-30T11:59:36;28.60;99.90
5554;DHT22;2800;49.528;8.666;2023-09-30T12:02:04;28.60;99.90
5554;DHT22;2800;49.528;8.666;2023-09-30T12:04:34;28.80;99.90
5554;DHT22;2800;49.528;8.666;2023-09-30T12:07:00;28.70;99.90
5554;DHT22;2800;49.528;8.666;2023-09-30T12:09:25;28.50;99.90
5554;DHT22;2800;49.528;8.666;2023-09-30T12:11:53;29.20;99.90
5554;DHT22;2800;49.528;8.666;2023-09-30T12:14:22;28.90;99.90
5554;DHT22;2800;49.528;8.666;2023-09-30T12:16:48;28.80;99.90
5554;DHT22;2800;49.528;8.666;2023-09-30T12:19:14;29.00;99.90
5554;DHT22;2800;49.528;8.666;2023-09-30T12:21:41;29.40;99.90
5554;DHT22;2800;49.528;8.666;2023-09-30T12:24:08;28.50;99.90
5554;DHT22;2800;49.528;8.666;2023-09-30T12:26:35;28.20;99.90
5554;DHT22;2800;49.528;8.666;2023-09-30T12:29:01;28.10;99.90
5554;DHT22;2800;49.528;8.666;2023-09-30T12:31:27;28.20;99.90
5554;DHT22;2800;49.528;8.666;2023-09-30T12:33:52;28.20;99.90
5554;DHT22;2800;49.528;8.666;2023-09-30T12:36:21;29.00;99.90
5554;DHT22;2800;49.528;8.666;2023-09-30T12:38:47;29.60;99.90
5554;DHT22;2800;49.528;8.666;2023-09-30T12:41:13;29.20;99.90
5554;DHT22;2800;49.528;8.666;2023-09-30T12:43:40;28.70;99.90
5554;DHT22;2800;49.528;8.666;2023-09-30T12:46:08;27.20;99.90
5554;DHT22;2800;49.528;8.666;2023-09-30T12:48:33;25.90;99.90
5554;DHT22;2800;49.528;8.666;2023-09-30T12:50:59;26.80;99.90
5554;DHT22;2800;49.528;8.666;2023-09-30T12:53:24;26.00;99.90
5554;DHT22;2800;49.528;8.666;2023-09-30T12:55:50;25.60;99.90
5554;DHT22;2800;49.528;8.666;2023-09-30T12:58:15;25.10;99.90
5554;DHT22;2800;49.528;8.666;2023-09-30T13:00:41;25.20;99.90
5554;DHT22;2800;49.528;8.666;2023-09-30T13:03:07;25.70;99.90
5554;DHT22;2800;49.528;8.666;2023-09-30T13:05:33;27.20;99.90
5554;DHT22;2800;49.528;8.666;2023-09-30T13:07:59;27.90;99.90
5554;DHT22;2800;49.528;8.666;2023-09-30T13:10:24;28.00;99.90
5554;DHT22;2800;49.528;8.666;2023-09-30T13:12:51;28.00;99.90
5554;DHT22;2800;49.528;8.666;2023-09-30T13:15:17;28.40;99.90
5554;DHT22;2800;49.528;8.666;2023-09-30T13:17:43;29.10;99.90
5554;DHT22;2800;49.528;8.666;2023-09-30T13:20:10;29.70;99.90
5554;DHT22;2800;49.528;8.666;2023-09-30T13:22:37;29.70;99.90
5554;DHT22;2800;49.528;8.666;2023-09-30T13:25:04;30.00;99.90
5554;DHT22;2800;49.528;8.666;2023-09-30T13:27:31;29.90;99.90
5554;DHT22;2800;49.528;8.666;2023-09-30T13:29:56;29.90;99.90
5554;DHT22;2800;49.528;8.666;2023-09-30T13:32:24;29.70;99.90
5554;DHT22;2800;49.528;8.666;2023-09-30T13:34:50;30.50;99.90
5554;DHT22;2800;49.528;8.666;2023-09-30T13:37:16;30.20;99.90
5554;DHT22;2800;49.528;8.666;2023-09-30T13:39:42;30.00;99.90
5554;DHT22;2800;49.528;8.666;2023-09-30T13:42:07;30.20;99.90
5554;DHT22;2800;49.528;8.666;2023-09-30T13:44:33;30.00;99.90
5554;DHT22;2800;49.528;8.666;2023-09-30T13:46:59;29.40;99.90
5554;DHT22;2800;49.528;8.666;2023-09-30T13:49:25;28.60;99.90
5554;DHT22;2800;49.528;8.666;2023-09-30T13:51:50;28.90;99.90
5554;DHT22;2800;49.528;8.666;2023-09-30T13:54:16;28.20;99.90
5554;DHT22;2800;49.528;8.666;2023-09-30T13:56:41;27.80;99.90
5554;DHT22;2800;49.528;8.666;2023-09-30T13:59:07;27.60;99.90
5554;DHT22;2800;49.528;8.666;2023-09-30T14:01:33;27.30;99.90
5554;DHT22;2800;49.528;8.666;2023-09-30T14:03:58;26.80;99.90
5554;DHT22;2800;49.528;8.666;2023-09-30T14:06:24;26.30;99.90
5554;DHT22;2800;49.528;8.666;2023-09-30T14:08:50;26.10;99.90
5554;DHT22;2800;49.528;8.666;2023-09-30T14:11:16;25.80;99.90
5554;DHT22;2800;49.528;8.666;2023-09-30T14:13:41;25.50;99.90
5554;DHT22;2800;49.528;8.666;2023-09-30T14:16:08;25.90;99.90
5554;DHT22;2800;49.528;8.666;2023-09-30T14:18:34;26.30;99.90
5554;DHT22;2800;49.528;8.666;2023-09-30T14:21:01;26.80;99.90
5554;DHT22;2800;49.528;8.666;2023-09-30T14:23:27;27.20;99.90
5554;DHT22;2800;49.528;8.666;2023-09-30T14:25:54;27.80;99.90
5554;DHT22;2800;49.528;8.666;2023-09-30T14:28:23;28.00;99.90
5554;DHT22;2800;49.528;8.666;2023-09-30T14:30:48;27.70;99.90
5554;DHT22;2800;49.528;8.666;2023-09-30T14:33:16;27.60;99.90
5554;DHT22;2800;49.528;8.666;2023-09-30T14:35:41;27.50;99.90
5554;DHT22;2800;49.528;8.666;2023-09-30T14:38:09;27.80;99.90
5554;DHT22;2800;49.528;8.666;2023-09-30T14:40:37;27.90;99.90
5554;DHT22;2800;49.528;8.666;2023-09-30T14:43:05;27.80;99.90
5554;DHT22;2800;49.528;8.666;2023-09-30T14:45:31;27.80;99.90
5554;DHT22;2800;49.528;8.666;2023-09-30T14:47:56;27.90;99.90
5554;DHT22;2800;49.528;8.666;2023-09-30T14:50:22;27.60;99.90
5554;DHT22;2800;49.528;8.666;2023-09-30T14:52:47;27.30;99.90
5554;DHT22;2800;49.528;8.666;2023-09-30T14:55:13;26.70;99.90
5554;DHT22;2800;49.528;8.666;2023-09-30T14:57:41;26.20;99.90
5554;DHT22;2800;49.528;8.666;2023-09-30T15:00:07;25.80;99.90
5554;DHT22;2800;49.528;8.666;2023-09-30T15:02:32;25.30;99.90
5554;DHT22;2800;49.528;8.666;2023-09-30T15:04:58;25.20;99.90
5554;DHT22;2800;49.528;8.666;2023-09-30T15:07:24;25.20;99.90
5554;DHT22;2800;49.528;8.666;2023-09-30T15:09:49;25.10;99.90
5554;DHT22;2800;49.528;8.666;2023-09-30T15:12:16;25.00;99.90
5554;DHT22;2800;49.528;8.666;2023-09-30T15:14:41;24.90;99.90
5554;DHT22;2800;49.528;8.666;2023-09-30T15:17:07;24.70;99.90
5554;DHT22;2800;49.528;8.666;2023-09-30T15:19:32;24.50;99.90
5554;DHT22;2800;49.528;8.666;2023-09-30T15:21:58;24.00;99.90
5554;DHT22;2800;49.528;8.666;2023-09-30T15:24:24;23.60;99.90
5554;DHT22;2800;49.528;8.666;2023-09-30T15:26:49;23.20;99.90
5554;DHT22;2800;49.528;8.666;2023-09-30T15:29:15;22.90;99.90
5554;DHT22;2800;49.528;8.666;2023-09-30T15:31:41;22.90;99.90
5554;DHT22;2800;49.528;8.666;2023-09-30T15:34:06;22.90;99.90
5554;DHT22;2800;49.528;8.666;2023-09-30T15:36:32;22.70;99.90
5554;DHT22;2800;49.528;8.666;2023-09-30T15:38:57;22.60;99.90
5554;DHT22;2800;49.528;8.666;2023-09-30T15:41:23;22.50;99.90
5554;DHT22;2800;49.528;8.666;2023-09-30T15:43:49;22.20;99.90
5554;DHT22;2800;49.528;8.666;2023-09-30T15:46:15;22.20;99.90
5554;DHT22;2800;49.528;8.666;2023-09-30T15:48:41;22.20;99.90
5554;DHT22;2800;49.528;8.666;2023-09-30T15:51:06;22.20;99.90
5554;DHT22;2800;49.528;8.666;2023-09-30T15:53:32;22.10;99.90
5554;DHT22;2800;49.528;8.666;2023-09-30T15:55:59;22.00;99.90
5554;DHT22;2800;49.528;8.666;2023-09-30T15:58:25;21.70;99.90
5554;DHT22;2800;49.528;8.666;2023-09-30T16:00:50;21.60;99.90
5554;DHT22;2800;49.528;8.666;2023-09-30T16:03:16;21.40;99.90
5554;DHT22;2800;49.528;8.666;2023-09-30T16:05:41;21.30;99.90
5554;DHT22;2800;49.528;8.666;2023-09-30T16:08:08;21.20;99.90
5554;DHT22;2800;49.528;8.666;2023-09-30T16:10:34;20.90;99.90
5554;DHT22;2800;49.528;8.666;2023-09-30T16:13:04;20.80;99.90
5554;DHT22;2800;49.528;8.666;2023-09-30T16:15:41;20.70;99.90
5554;DHT22;2800;49.528;8.666;2023-09-30T16:18:07;20.70;99.90
5554;DHT22;2800;49.528;8.666;2023-09-30T16:20:33;20.60;99.90